Time,TemperatureF,DewpointF,PressureIn,WindDirection,WindDirectionDegrees,WindSpeedMPH,WindSpeedGustMPH,Humidity,HourlyPrecipIn,Conditions,Clouds,dailyrainin,SoftwareType,DateUTC
2013-01-09 00:03:00,23.3,21.8,30.36,SSE,157,0.0,0.0,94,0.00,,,0.00,Wunderground v.1.15,2013-01-09 05:03:00,
2013-01-09 00:04:00,23.3,21.8,30.37,SSE,157,0.0,0.0,94,0.00,,,0.00,Wunderground v.1.15,2013-01-09 05:04:00,
2013-01-09 00:06:00,23.2,21.7,30.37,SSE,157,0.0,0.0,94,0.00,,,0.00,Wunderground v.1.15,2013-01-09 05:06:00,
2013-01-09 00:12:00,23.2,21.7,30.37,SSE,157,0.0,0.0,94,0.00,,,0.00,Wunderground v.1.15,2013-01-09 05:12:00,
2013-01-09 00:17:00,23.1,21.9,30.37,SSE,157,0.0,0.0,95,0.00,,,0.00,Wunderground v.1.15,2013-01-09 05:17:00,
2013-01-09 00:22:00,23.0,21.8,30.36,SSE,157,0.0,0.0,95,0.00,,,0.00,Wunderground v.1.15,2013-01-09 05:22:00,
2013-01-09 00:27:00,22.9,21.4,30.37,SSE,157,0.0,0.0,94,0.00,,,0.00,Wunderground v.1.15,2013-01-09 05:27:00,
2013-01-09 00:33:00,22.9,21.7,30.37,SSE,157,0.0,0.0,95,0.00,,,0.00,Wunderground v.1.15,2013-01-09 05:33:00,
2013-01-09 00:38:00,22.9,21.7,30.37,SSE,157,0.0,0.0,95,0.00,,,0.00,Wunderground v.1.15,2013-01-09 05:38:00,
2013-01-09 00:43:00,22.8,21.6,30.37,SSE,157,0.0,0.0,95,0.00,,,0.00,Wunderground v.1.15,2013-01-09 05:43:00,
2013-01-09 00:48:00,22.7,21.5,30.37,SSE,157,0.0,0.0,95,0.00,,,0.00,Wunderground v.1.15,2013-01-09 05:48:00,
2013-01-09 00:54:00,22.6,21.4,30.36,SSE,157,0.0,0.0,95,0.00,,,0.00,Wunderground v.1.15,2013-01-09 05:54:00,
2013-01-09 00:59:00,22.6,21.4,30.36,SSE,157,0.0,0.0,95,0.00,,,0.00,Wunderground v.1.15,2013-01-09 05:59:00,
2013-01-09 01:05:00,22.6,21.4,30.35,SSE,157,0.0,0.0,95,0.00,,,0.00,Wunderground v.1.15,2013-01-09 06:05:00,
2013-01-09 01:10:00,22.6,21.4,30.35,SSE,157,0.0,0.0,95,0.00,,,0.00,Wunderground v.1.15,2013-01-09 06:10:00,
2013-01-09 01:15:00,22.6,21.4,30.35,SSE,157,0.0,0.0,95,0.00,,,0.00,Wunderground v.1.15,2013-01-09 06:15:00,
2013-01-09 01:20:00,22.5,21.3,30.34,SSE,157,0.0,0.0,95,0.00,,,0.00,Wunderground v.1.15,2013-01-09 06:20:00,
2013-01-09 01:25:00,22.4,21.2,30.34,SSE,157,0.0,0.0,95,0.00,,,0.00,Wunderground v.1.15,2013-01-09 06:25:00,
2013-01-09 01:31:00,22.2,21.0,30.34,SSE,157,0.0,0.0,95,0.00,,,0.00,Wunderground v.1.15,2013-01-09 06:31:00,
2013-01-09 01:36:00,22.2,21.0,30.34,SSE,157,0.0,0.0,95,0.00,,,0.00,Wunderground v.1.15,2013-01-09 06:36:00,
2013-01-09 01:41:00,22.1,20.9,30.34,SSE,157,0.0,0.0,95,0.00,,,0.00,Wunderground v.1.15,2013-01-09 06:41:00,
2013-01-09 01:47:00,22.0,20.8,30.34,SSE,157,0.0,0.0,95,0.00,,,0.00,Wunderground v.1.15,2013-01-09 06:47:00,
2013-01-09 01:52:00,21.9,20.7,30.33,SSE,157,0.0,0.0,95,0.00,,,0.00,Wunderground v.1.15,2013-01-09 06:52:00,
2013-01-09 01:57:00,21.8,20.6,30.33,SSE,157,0.0,0.0,95,0.00,,,0.00,Wunderground v.1.15,2013-01-09 06:57:00,
2013-01-09 02:02:00,21.7,20.5,30.33,SSE,157,0.0,0.0,95,0.00,,,0.00,Wunderground v.1.15,2013-01-09 07:02:00,
2013-01-09 02:07:00,21.7,20.5,30.34,SSE,157,0.0,0.0,95,0.00,,,0.00,Wunderground v.1.15,2013-01-09 07:07:00,
2013-01-09 02:13:00,21.7,20.5,30.34,SSE,157,0.0,0.0,95,0.00,,,0.00,Wunderground v.1.15,2013-01-09 07:13:00,
2013-01-09 02:18:00,21.6,20.4,30.34,SSE,157,0.0,0.0,95,0.00,,,0.00,Wunderground v.1.15,2013-01-09 07:18:00,
2013-01-09 02:23:00,21.6,20.4,30.34,SSE,157,0.0,0.0,95,0.00,,,0.00,Wunderground v.1.15,2013-01-09 07:23:00,
2013-01-09 02:28:00,21.6,20.4,30.34,SSE,157,0.0,0.0,95,0.00,,,0.00,Wunderground v.1.15,2013-01-09 07:28:00,
2013-01-09 02:34:00,21.6,20.4,30.34,SSE,157,0.0,0.0,95,0.00,,,0.00,Wunderground v.1.15,2013-01-09 07:34:00,
2013-01-09 02:39:00,21.5,20.3,30.34,SSE,157,0.0,0.0,95,0.00,,,0.00,Wunderground v.1.15,2013-01-09 07:39:00,
2013-01-09 02:45:00,21.5,20.3,30.34,SSE,157,0.0,0.0,95,0.00,,,0.00,Wunderground v.1.15,2013-01-09 07:45:00,
2013-01-09 02:50:00,21.5,20.3,30.34,SSE,157,0.0,0.0,95,0.00,,,0.00,Wunderground v.1.15,2013-01-09 07:50:00,
2013-01-09 02:55:00,21.5,20.3,30.35,SSE,157,0.0,0.0,95,0.00,,,0.00,Wunderground v.1.15,2013-01-09 07:55:00,
2013-01-09 03:00:00,21.5,20.3,30.35,SSE,157,0.0,0.0,95,0.00,,,0.00,Wunderground v.1.15,2013-01-09 08:00:00,
2013-01-09 03:06:00,21.5,20.3,30.35,SSE,157,0.0,0.0,95,0.00,,,0.00,Wunderground v.1.15,2013-01-09 08:06:00,
2013-01-09 03:11:00,21.5,20.3,30.35,SSE,157,0.0,0.0,95,0.00,,,0.00,Wunderground v.1.15,2013-01-09 08:11:00,
2013-01-09 03:17:00,21.6,20.4,30.35,SSE,157,0.0,0.0,95,0.00,,,0.00,Wunderground v.1.15,2013-01-09 08:17:00,
2013-01-09 03:22:00,21.6,20.4,30.35,SSE,157,0.0,0.0,95,0.00,,,0.00,Wunderground v.1.15,2013-01-09 08:22:00,
2013-01-09 03:28:00,21.7,20.7,30.35,SSE,157,0.0,0.0,96,0.00,,,0.00,Wunderground v.1.15,2013-01-09 08:28:00,
2013-01-09 03:33:00,21.7,20.7,30.34,SSE,157,0.0,0.0,96,0.00,,,0.00,Wunderground v.1.15,2013-01-09 08:33:00,
2013-01-09 03:38:00,21.7,20.7,30.34,SSE,157,0.0,0.0,96,0.00,,,0.00,Wunderground v.1.15,2013-01-09 08:38:00,
2013-01-09 03:43:00,21.7,20.7,30.34,SSE,157,0.0,0.0,96,0.00,,,0.00,Wunderground v.1.15,2013-01-09 08:43:00,
2013-01-09 03:48:00,21.7,20.7,30.34,SSE,157,0.0,0.0,96,0.00,,,0.00,Wunderground v.1.15,2013-01-09 08:48:00,
2013-01-09 03:53:00,21.7,20.7,30.34,SSE,157,0.0,0.0,96,0.00,,,0.00,Wunderground v.1.15,2013-01-09 08:53:00,
2013-01-09 03:58:00,21.7,20.7,30.34,SSE,157,0.0,0.0,96,0.00,,,0.00,Wunderground v.1.15,2013-01-09 08:58:00,
2013-01-09 04:03:00,21.8,20.8,30.34,SSE,157,0.0,0.0,96,0.00,,,0.00,Wunderground v.1.15,2013-01-09 09:03:00,
2013-01-09 04:08:00,21.8,20.8,30.34,SSE,157,0.0,0.0,96,0.00,,,0.00,Wunderground v.1.15,2013-01-09 09:08:00,
2013-01-09 04:14:00,21.9,20.9,30.34,SSE,157,0.0,0.0,96,0.00,,,0.00,Wunderground v.1.15,2013-01-09 09:14:00,
2013-01-09 04:19:00,22.0,21.0,30.33,SSE,157,0.0,0.0,96,0.00,,,0.00,Wunderground v.1.15,2013-01-09 09:19:00,
2013-01-09 04:24:00,22.0,21.0,30.33,SSE,157,0.0,0.0,96,0.00,,,0.00,Wunderground v.1.15,2013-01-09 09:24:00,
2013-01-09 04:29:00,22.0,21.0,30.33,SSE,157,0.0,0.0,96,0.00,,,0.00,Wunderground v.1.15,2013-01-09 09:29:00,
2013-01-09 04:34:00,22.1,21.1,30.33,SSE,157,0.0,0.0,96,0.00,,,0.00,Wunderground v.1.15,2013-01-09 09:34:00,
2013-01-09 04:39:00,22.1,21.1,30.33,SSE,157,0.0,0.0,96,0.00,,,0.00,Wunderground v.1.15,2013-01-09 09:39:00,
2013-01-09 04:44:00,22.1,21.1,30.33,SSE,157,0.0,0.0,96,0.00,,,0.00,Wunderground v.1.15,2013-01-09 09:44:00,
2013-01-09 04:49:00,22.1,21.1,30.33,SSE,157,0.0,0.0,96,0.00,,,0.00,Wunderground v.1.15,2013-01-09 09:49:00,
2013-01-09 04:54:00,22.1,21.1,30.33,SSE,157,0.0,0.0,96,0.00,,,0.00,Wunderground v.1.15,2013-01-09 09:54:00,
2013-01-09 04:59:00,22.1,21.1,30.33,SSE,157,0.0,0.0,96,0.00,,,0.00,Wunderground v.1.15,2013-01-09 09:59:00,
2013-01-09 05:05:00,22.1,21.1,30.33,SSE,157,0.0,0.0,96,0.00,,,0.00,Wunderground v.1.15,2013-01-09 10:05:00,
2013-01-09 05:10:00,22.1,21.1,30.34,SSE,157,0.0,0.0,96,0.00,,,0.00,Wunderground v.1.15,2013-01-09 10:10:00,
2013-01-09 05:15:00,22.1,21.1,30.33,SSE,157,0.0,0.0,96,0.00,,,0.00,Wunderground v.1.15,2013-01-09 10:15:00,
2013-01-09 05:21:00,22.1,21.1,30.33,SSE,157,0.0,0.0,96,0.00,,,0.00,Wunderground v.1.15,2013-01-09 10:21:00,
2013-01-09 05:27:00,22.1,21.1,30.33,SSE,157,0.0,0.0,96,0.00,,,0.00,Wunderground v.1.15,2013-01-09 10:27:00,
2013-01-09 05:32:00,22.1,21.1,30.33,SSE,157,0.0,0.0,96,0.00,,,0.00,Wunderground v.1.15,2013-01-09 10:32:00,
2013-01-09 05:38:00,22.2,21.2,30.33,SSE,157,0.0,0.0,96,0.00,,,0.00,Wunderground v.1.15,2013-01-09 10:38:00,
2013-01-09 05:43:00,22.3,21.3,30.33,SSE,157,0.0,0.0,96,0.00,,,0.00,Wunderground v.1.15,2013-01-09 10:43:00,
2013-01-09 05:48:00,22.5,21.5,30.32,SSE,157,0.0,0.0,96,0.00,,,0.00,Wunderground v.1.15,2013-01-09 10:48:00,
2013-01-09 05:53:00,22.8,21.8,30.32,SSE,157,0.0,0.0,96,0.00,,,0.00,Wunderground v.1.15,2013-01-09 10:53:00,
2013-01-09 05:58:00,23.0,22.0,30.32,SSE,157,0.0,0.0,96,0.00,,,0.00,Wunderground v.1.15,2013-01-09 10:58:00,
2013-01-09 06:03:00,23.1,22.1,30.31,SSE,157,0.0,0.0,96,0.00,,,0.00,Wunderground v.1.15,2013-01-09 11:03:00,
2013-01-09 06:08:00,23.4,22.4,30.32,SSE,157,0.0,0.0,96,0.00,,,0.00,Wunderground v.1.15,2013-01-09 11:08:00,
2013-01-09 06:13:00,23.6,22.6,30.32,SSE,157,0.0,0.0,96,0.00,,,0.00,Wunderground v.1.15,2013-01-09 11:13:00,
2013-01-09 06:18:00,23.9,23.2,30.32,SSE,157,0.0,0.0,97,0.00,,,0.00,Wunderground v.1.15,2013-01-09 11:18:00,
2013-01-09 06:24:00,24.0,23.3,30.32,SSE,157,0.0,0.0,97,0.00,,,0.00,Wunderground v.1.15,2013-01-09 11:24:00,
2013-01-09 06:29:00,24.3,23.6,30.32,SSE,157,0.0,0.0,97,0.00,,,0.00,Wunderground v.1.15,2013-01-09 11:29:00,
2013-01-09 06:34:00,24.6,23.9,30.32,SSE,157,0.0,0.0,97,0.00,,,0.00,Wunderground v.1.15,2013-01-09 11:34:00,
2013-01-09 06:39:00,24.8,24.1,30.32,SSE,157,0.0,1.0,97,0.00,,,0.00,Wunderground v.1.15,2013-01-09 11:39:00,
2013-01-09 06:44:00,25.0,24.3,30.32,SSE,157,0.0,0.0,97,0.00,,,0.00,Wunderground v.1.15,2013-01-09 11:44:00,
2013-01-09 06:50:00,25.2,24.5,30.32,SSE,157,0.0,0.0,97,0.00,,,0.00,Wunderground v.1.15,2013-01-09 11:50:00,
2013-01-09 06:55:00,25.4,24.7,30.33,SSE,157,0.0,0.0,97,0.00,,,0.00,Wunderground v.1.15,2013-01-09 11:55:00,
2013-01-09 07:01:00,25.6,24.9,30.32,SSE,157,0.0,0.0,97,0.00,,,0.00,Wunderground v.1.15,2013-01-09 12:01:00,
2013-01-09 07:06:00,25.8,25.1,30.32,SSE,157,0.0,0.0,97,0.00,,,0.00,Wunderground v.1.15,2013-01-09 12:06:00,
2013-01-09 07:11:00,25.9,25.2,30.32,SSE,157,0.0,0.0,97,0.00,,,0.00,Wunderground v.1.15,2013-01-09 12:11:00,
2013-01-09 07:17:00,26.0,25.3,30.32,SSE,157,0.0,0.0,97,0.00,,,0.00,Wunderground v.1.15,2013-01-09 12:17:00,
2013-01-09 07:22:00,26.3,25.6,30.33,SSE,157,0.0,1.0,97,0.00,,,0.00,Wunderground v.1.15,2013-01-09 12:22:00,
2013-01-09 07:27:00,26.5,25.8,30.33,SSE,157,0.0,1.0,97,0.00,,,0.00,Wunderground v.1.15,2013-01-09 12:27:00,
2013-01-09 07:33:00,26.8,26.1,30.33,SSE,157,0.0,0.0,97,0.00,,,0.00,Wunderground v.1.15,2013-01-09 12:33:00,
2013-01-09 07:39:00,27.2,26.5,30.34,SSE,157,0.0,0.0,97,0.00,,,0.00,Wunderground v.1.15,2013-01-09 12:39:00,
2013-01-09 07:44:00,27.6,26.9,30.34,SSE,157,0.0,0.0,97,0.00,,,0.00,Wunderground v.1.15,2013-01-09 12:44:00,
2013-01-09 07:49:00,27.9,27.2,30.35,SSE,157,0.0,0.0,97,0.00,,,0.00,Wunderground v.1.15,2013-01-09 12:49:00,
2013-01-09 07:54:00,28.2,27.5,30.34,SSE,157,0.0,0.0,97,0.00,,,0.00,Wunderground v.1.15,2013-01-09 12:54:00,
2013-01-09 08:01:00,28.4,27.9,30.35,SSE,157,0.0,0.0,98,0.00,,,0.00,Wunderground v.1.15,2013-01-09 13:01:00,
2013-01-09 08:06:00,28.8,28.1,30.35,SSE,157,0.0,0.0,97,0.00,,,0.00,Wunderground v.1.15,2013-01-09 13:06:00,
2013-01-09 08:11:00,29.0,28.5,30.34,SSE,157,0.0,0.0,98,0.00,,,0.00,Wunderground v.1.15,2013-01-09 13:11:00,
2013-01-09 08:17:00,29.2,28.7,30.34,SSE,157,0.0,0.0,98,0.00,,,0.00,Wunderground v.1.15,2013-01-09 13:17:00,
2013-01-09 08:22:00,29.3,28.8,30.34,SSE,157,0.0,0.0,98,0.00,,,0.00,Wunderground v.1.15,2013-01-09 13:22:00,
2013-01-09 08:27:00,29.6,29.1,30.34,SSE,157,0.0,0.0,98,0.00,,,0.00,Wunderground v.1.15,2013-01-09 13:27:00,
2013-01-09 08:32:00,29.9,29.4,30.34,SSE,157,0.0,1.0,98,0.00,,,0.00,Wunderground v.1.15,2013-01-09 13:32:00,
2013-01-09 08:38:00,30.2,29.7,30.35,SSE,157,0.0,1.0,98,0.00,,,0.00,Wunderground v.1.15,2013-01-09 13:38:00,
2013-01-09 08:43:00,30.4,29.9,30.35,SSE,157,0.0,1.0,98,0.00,,,0.00,Wunderground v.1.15,2013-01-09 13:43:00,
2013-01-09 08:48:00,30.6,30.1,30.35,SSE,157,0.0,1.0,98,0.00,,,0.00,Wunderground v.1.15,2013-01-09 13:48:00,
2013-01-09 08:53:00,30.9,30.4,30.34,SSE,157,0.0,1.0,98,0.00,,,0.00,Wunderground v.1.15,2013-01-09 13:53:00,
2013-01-09 08:59:00,31.2,30.7,30.35,SSE,157,0.0,1.0,98,0.00,,,0.00,Wunderground v.1.15,2013-01-09 13:59:00,
2013-01-09 09:05:00,31.7,31.2,30.35,SSE,157,0.0,0.0,98,0.00,,,0.00,Wunderground v.1.15,2013-01-09 14:05:00,
2013-01-09 09:10:00,31.9,31.4,30.35,SSE,157,0.0,0.0,98,0.00,,,0.00,Wunderground v.1.15,2013-01-09 14:10:00,
2013-01-09 09:16:00,32.2,31.7,30.35,SSE,157,0.0,0.0,98,0.00,,,0.00,Wunderground v.1.15,2013-01-09 14:16:00,
2013-01-09 09:21:00,32.6,32.1,30.36,SSE,157,0.0,0.0,98,0.00,,,0.00,Wunderground v.1.15,2013-01-09 14:21:00,
2013-01-09 09:26:00,32.8,32.3,30.36,SSE,157,0.0,0.0,98,0.00,,,0.00,Wunderground v.1.15,2013-01-09 14:26:00,
2013-01-09 09:31:00,33.0,32.5,30.36,SSE,157,0.0,1.0,98,0.00,,,0.00,Wunderground v.1.15,2013-01-09 14:31:00,
2013-01-09 09:36:00,33.4,32.9,30.36,SSE,157,0.0,2.0,98,0.00,,,0.00,Wunderground v.1.15,2013-01-09 14:36:00,
2013-01-09 09:42:00,33.8,33.3,30.36,SSE,157,0.0,2.0,98,0.00,,,0.00,Wunderground v.1.15,2013-01-09 14:42:00,
2013-01-09 09:48:00,34.4,33.9,30.36,SSE,157,0.0,2.0,98,0.00,,,0.00,Wunderground v.1.15,2013-01-09 14:48:00,
2013-01-09 09:53:00,34.7,34.2,30.37,SSE,157,0.0,2.0,98,0.00,,,0.00,Wunderground v.1.15,2013-01-09 14:53:00,
2013-01-09 09:59:00,35.4,34.9,30.37,NNW,342,0.0,2.0,98,0.00,,,0.00,Wunderground v.1.15,2013-01-09 14:59:00,
2013-01-09 10:05:00,36.0,35.5,30.37,NNW,342,0.0,1.0,98,0.00,,,0.00,Wunderground v.1.15,2013-01-09 15:05:00,
2013-01-09 10:10:00,36.5,36.0,30.37,NNW,342,0.0,2.0,98,0.00,,,0.00,Wunderground v.1.15,2013-01-09 15:10:00,
2013-01-09 10:15:00,36.9,36.4,30.38,SSE,165,0.0,2.0,98,0.00,,,0.00,Wunderground v.1.15,2013-01-09 15:15:00,
2013-01-09 10:20:00,37.2,36.4,30.38,South,191,1.0,1.0,97,0.00,,,0.00,Wunderground v.1.15,2013-01-09 15:20:00,
2013-01-09 10:25:00,37.4,36.4,30.38,South,182,1.0,1.0,96,0.00,,,0.00,Wunderground v.1.15,2013-01-09 15:25:00,
2013-01-09 10:30:00,37.6,36.6,30.37,South,182,0.0,0.0,96,0.00,,,0.00,Wunderground v.1.15,2013-01-09 15:30:00,
2013-01-09 10:35:00,37.8,36.5,30.38,South,182,0.0,2.0,95,0.00,,,0.00,Wunderground v.1.15,2013-01-09 15:35:00,
2013-01-09 10:40:00,38.4,37.1,30.38,South,182,0.0,2.0,95,0.00,,,0.00,Wunderground v.1.15,2013-01-09 15:40:00,
2013-01-09 10:45:00,38.8,37.2,30.38,SSE,155,1.0,3.0,94,0.00,,,0.00,Wunderground v.1.15,2013-01-09 15:45:00,
2013-01-09 10:50:00,39.1,37.5,30.37,SSE,155,1.0,3.0,94,0.00,,,0.00,Wunderground v.1.15,2013-01-09 15:50:00,
2013-01-09 10:55:00,39.3,37.7,30.35,SSE,151,1.0,3.0,94,0.00,,,0.00,Wunderground v.1.15,2013-01-09 15:55:00,
2013-01-09 11:00:00,39.6,38.0,30.35,SE,132,2.0,2.0,94,0.00,,,0.01,Wunderground v.1.15,2013-01-09 16:00:00,
2013-01-09 11:06:00,39.7,38.1,30.34,SW,232,1.0,2.0,94,0.00,,,0.01,Wunderground v.1.15,2013-01-09 16:06:00,
2013-01-09 11:12:00,39.7,38.1,30.35,SW,232,0.0,1.0,94,0.00,,,0.01,Wunderground v.1.15,2013-01-09 16:12:00,
2013-01-09 11:18:00,39.7,38.4,30.33,SSE,157,0.0,4.0,95,0.00,,,0.01,Wunderground v.1.15,2013-01-09 16:18:00,
2013-01-09 11:23:00,39.6,38.3,30.33,SSE,158,1.0,1.0,95,0.00,,,0.01,Wunderground v.1.15,2013-01-09 16:23:00,
2013-01-09 11:28:00,39.7,38.4,30.33,ESE,110,1.0,5.0,95,0.00,,,0.01,Wunderground v.1.15,2013-01-09 16:28:00,
2013-01-09 11:33:00,39.8,38.5,30.32,SSE,147,2.0,3.0,95,0.00,,,0.01,Wunderground v.1.15,2013-01-09 16:33:00,
2013-01-09 11:39:00,39.8,38.5,30.32,South,179,1.0,3.0,95,0.00,,,0.01,Wunderground v.1.15,2013-01-09 16:39:00,
2013-01-09 11:44:00,40.2,39.2,30.32,SE,126,1.0,3.0,96,0.00,,,0.02,Wunderground v.1.15,2013-01-09 16:44:00,
2013-01-09 11:50:00,40.7,39.6,30.32,SE,136,2.0,3.0,96,0.00,,,0.02,Wunderground v.1.15,2013-01-09 16:50:00,
2013-01-09 11:56:00,41.4,40.3,30.31,SSE,160,4.0,6.0,96,0.00,,,0.02,Wunderground v.1.15,2013-01-09 16:56:00,
2013-01-09 12:01:00,42.0,40.9,30.30,ESE,115,5.0,8.0,96,0.04,,,0.03,Wunderground v.1.15,2013-01-09 17:01:00,
2013-01-09 12:07:00,42.5,41.4,30.29,SSE,167,6.0,8.0,96,0.04,,,0.03,Wunderground v.1.15,2013-01-09 17:07:00,
2013-01-09 12:12:00,42.8,41.7,30.30,SE,146,4.0,5.0,96,0.04,,,0.03,Wunderground v.1.15,2013-01-09 17:12:00,
2013-01-09 12:17:00,42.9,41.6,30.30,SSW,204,3.0,5.0,95,0.00,,,0.03,Wunderground v.1.15,2013-01-09 17:17:00,
2013-01-09 12:22:00,43.0,41.7,30.32,NNW,331,3.0,5.0,95,0.00,,,0.03,Wunderground v.1.15,2013-01-09 17:22:00,
2013-01-09 12:27:00,43.1,41.8,30.31,NNE,28,3.0,5.0,95,0.00,,,0.03,Wunderground v.1.15,2013-01-09 17:27:00,
2013-01-09 12:32:00,43.1,41.8,30.31,SSE,155,3.0,7.0,95,0.00,,,0.03,Wunderground v.1.15,2013-01-09 17:32:00,
2013-01-09 12:38:00,43.0,41.7,30.32,North,9,2.0,7.0,95,0.00,,,0.03,Wunderground v.1.15,2013-01-09 17:38:00,
2013-01-09 12:43:00,42.8,41.5,30.33,NNW,327,2.0,7.0,95,0.00,,,0.03,Wunderground v.1.15,2013-01-09 17:43:00,
2013-01-09 12:48:00,42.8,41.5,30.33,NNW,346,3.0,7.0,95,0.00,,,0.03,Wunderground v.1.15,2013-01-09 17:48:00,
2013-01-09 12:53:00,42.6,41.3,30.34,NNW,330,3.0,7.0,95,0.00,,,0.03,Wunderground v.1.15,2013-01-09 17:53:00,
2013-01-09 12:59:00,42.6,41.3,30.33,SSE,153,2.0,7.0,95,0.00,,,0.03,Wunderground v.1.15,2013-01-09 17:59:00,
2013-01-09 13:05:00,42.5,41.2,30.33,SSW,196,2.0,3.0,95,0.00,,,0.03,Wunderground v.1.15,2013-01-09 18:05:00,
2013-01-09 13:10:00,42.6,41.5,30.33,NW,326,2.0,5.0,96,0.00,,,0.03,Wunderground v.1.15,2013-01-09 18:10:00,
2013-01-09 13:15:00,42.8,41.7,30.33,NNE,32,2.0,3.0,96,0.00,,,0.03,Wunderground v.1.15,2013-01-09 18:15:00,
2013-01-09 13:20:00,42.7,41.6,30.32,SSE,165,3.0,5.0,96,0.00,,,0.03,Wunderground v.1.15,2013-01-09 18:20:00,
2013-01-09 13:25:00,42.9,41.8,30.33,SE,126,3.0,3.0,96,0.00,,,0.03,Wunderground v.1.15,2013-01-09 18:25:00,
2013-01-09 13:30:00,43.0,41.9,30.33,South,169,2.0,5.0,96,0.00,,,0.03,Wunderground v.1.15,2013-01-09 18:30:00,
2013-01-09 13:35:00,43.1,42.0,30.33,SSE,163,3.0,13.0,96,0.00,,,0.03,Wunderground v.1.15,2013-01-09 18:35:00,
2013-01-09 13:40:00,43.2,42.1,30.33,WNW,298,3.0,13.0,96,0.00,,,0.03,Wunderground v.1.15,2013-01-09 18:40:00,
2013-01-09 13:42:00,43.2,42.1,30.33,South,175,3.0,4.0,96,0.00,,,0.03,Wunderground v.1.15,2013-01-09 18:42:00,
2013-01-09 13:43:00,43.3,42.2,30.33,SW,217,3.0,13.0,96,0.00,,,0.03,Wunderground v.1.15,2013-01-09 18:43:00,
2013-01-09 13:44:00,43.3,42.2,30.33,East,94,3.0,13.0,96,0.00,,,0.03,Wunderground v.1.15,2013-01-09 18:44:00,
2013-01-09 13:45:00,43.4,42.3,30.33,SE,145,3.0,13.0,96,0.00,,,0.03,Wunderground v.1.15,2013-01-09 18:45:00,
2013-01-09 13:47:00,43.4,42.3,30.33,South,189,3.0,13.0,96,0.00,,,0.03,Wunderground v.1.15,2013-01-09 18:47:00,
2013-01-09 13:48:00,43.4,42.3,30.33,South,191,3.0,13.0,96,0.00,,,0.03,Wunderground v.1.15,2013-01-09 18:48:00,
2013-01-09 13:49:00,43.5,42.4,30.33,SE,132,3.0,13.0,96,0.00,,,0.03,Wunderground v.1.15,2013-01-09 18:49:00,
2013-01-09 13:52:00,43.6,42.5,30.33,SE,140,3.0,13.0,96,0.00,,,0.03,Wunderground v.1.15,2013-01-09 18:52:00,
2013-01-09 13:57:00,43.7,42.6,30.33,North,5,2.0,13.0,96,0.00,,,0.03,Wunderground v.1.15,2013-01-09 18:57:00,
2013-01-09 14:03:00,43.8,42.5,30.33,South,183,1.0,2.0,95,0.00,,,0.03,Wunderground v.1.15,2013-01-09 19:03:00,
2013-01-09 14:05:00,43.9,42.6,30.33,SW,217,2.0,2.0,95,0.00,,,0.03,Wunderground v.1.15,2013-01-09 19:05:00,
2013-01-09 14:10:00,44.1,42.8,30.33,SW,219,2.0,2.0,95,0.00,,,0.03,Wunderground v.1.15,2013-01-09 19:10:00,
2013-01-09 14:15:00,44.2,42.9,30.33,WNW,286,2.0,6.0,95,0.00,,,0.03,Wunderground v.1.15,2013-01-09 19:15:00,
2013-01-09 14:20:00,44.4,42.8,30.33,SSW,209,3.0,3.0,94,0.00,,,0.03,Wunderground v.1.15,2013-01-09 19:20:00,
2013-01-09 14:25:00,44.6,43.0,30.33,East,98,2.0,8.0,94,0.00,,,0.03,Wunderground v.1.15,2013-01-09 19:25:00,
2013-01-09 14:30:00,44.8,43.2,30.33,SSW,194,3.0,3.0,94,0.00,,,0.03,Wunderground v.1.15,2013-01-09 19:30:00,
2013-01-09 14:35:00,45.0,43.1,30.33,NNW,331,3.0,7.0,93,0.00,,,0.03,Wunderground v.1.15,2013-01-09 19:35:00,
2013-01-09 14:40:00,45.2,43.3,30.33,SSE,148,1.0,7.0,93,0.00,,,0.03,Wunderground v.1.15,2013-01-09 19:40:00,
2013-01-09 14:46:00,45.5,43.3,30.33,SE,134,2.0,7.0,92,0.00,,,0.03,Wunderground v.1.15,2013-01-09 19:46:00,
2013-01-09 14:51:00,45.7,43.2,30.33,SE,144,3.0,5.0,91,0.00,,,0.03,Wunderground v.1.15,2013-01-09 19:51:00,
2013-01-09 14:56:00,45.7,43.2,30.33,South,176,3.0,7.0,91,0.00,,,0.03,Wunderground v.1.15,2013-01-09 19:56:00,
2013-01-09 15:02:00,45.8,43.0,30.33,West,263,3.0,4.0,90,0.00,,,0.03,Wunderground v.1.15,2013-01-09 20:02:00,
2013-01-09 15:07:00,45.8,43.0,30.33,WSW,238,3.0,5.0,90,0.00,,,0.03,Wunderground v.1.15,2013-01-09 20:07:00,
2013-01-09 15:12:00,46.0,43.2,30.33,South,182,3.0,5.0,90,0.00,,,0.03,Wunderground v.1.15,2013-01-09 20:12:00,
2013-01-09 15:18:00,46.1,43.0,30.33,NE,46,3.0,5.0,89,0.00,,,0.03,Wunderground v.1.15,2013-01-09 20:18:00,
2013-01-09 15:23:00,46.3,43.2,30.33,NE,46,2.0,3.0,89,0.00,,,0.03,Wunderground v.1.15,2013-01-09 20:23:00,
2013-01-09 15:28:00,46.3,42.9,30.33,WSW,255,2.0,3.0,88,0.00,,,0.03,Wunderground v.1.15,2013-01-09 20:28:00,
2013-01-09 15:33:00,46.4,43.0,30.34,South,187,3.0,9.0,88,0.00,,,0.03,Wunderground v.1.15,2013-01-09 20:33:00,
2013-01-09 15:38:00,46.4,43.0,30.35,WNW,294,2.0,9.0,88,0.00,,,0.03,Wunderground v.1.15,2013-01-09 20:38:00,
2013-01-09 15:43:00,46.2,42.8,30.35,South,176,1.0,9.0,88,0.00,,,0.03,Wunderground v.1.15,2013-01-09 20:43:00,
2013-01-09 15:48:00,46.1,42.7,30.35,ESE,121,2.0,9.0,88,0.00,,,0.03,Wunderground v.1.15,2013-01-09 20:48:00,
2013-01-09 15:54:00,46.1,42.4,30.35,SSW,213,2.0,9.0,87,0.00,,,0.03,Wunderground v.1.15,2013-01-09 20:54:00,
2013-01-09 16:00:00,46.1,42.4,30.35,SSE,152,2.0,2.0,87,0.00,,,0.03,Wunderground v.1.15,2013-01-09 21:00:00,
2013-01-09 16:06:00,46.0,43.5,30.35,SSE,160,2.0,3.0,91,0.00,,,0.03,Wunderground v.1.15,2013-01-09 21:06:00,
2013-01-09 16:11:00,46.0,42.3,30.35,South,177,2.0,4.0,87,0.00,,,0.03,Wunderground v.1.15,2013-01-09 21:11:00,
2013-01-09 16:16:00,45.9,42.2,30.35,South,182,2.0,5.0,87,0.00,,,0.03,Wunderground v.1.15,2013-01-09 21:16:00,
2013-01-09 16:21:00,45.7,42.1,30.34,SW,215,2.0,3.0,87,0.00,,,0.03,Wunderground v.1.15,2013-01-09 21:21:00,
2013-01-09 16:27:00,45.5,41.9,30.35,WSW,242,2.0,3.0,87,0.00,,,0.03,Wunderground v.1.15,2013-01-09 21:27:00,
2013-01-09 16:33:00,45.2,41.6,30.35,South,188,1.0,10.0,87,0.00,,,0.03,Wunderground v.1.15,2013-01-09 21:33:00,
2013-01-09 16:38:00,45.2,41.9,30.36,SSE,155,1.0,10.0,88,0.00,,,0.03,Wunderground v.1.15,2013-01-09 21:38:00,
2013-01-09 16:43:00,45.2,41.9,30.35,WNW,302,1.0,10.0,88,0.00,,,0.03,Wunderground v.1.15,2013-01-09 21:43:00,
2013-01-09 16:48:00,45.0,41.7,30.36,SW,222,1.0,10.0,88,0.00,,,0.03,Wunderground v.1.15,2013-01-09 21:48:00,
2013-01-09 16:53:00,45.0,41.7,30.36,NE,53,2.0,10.0,88,0.00,,,0.03,Wunderground v.1.15,2013-01-09 21:53:00,
2013-01-09 16:58:00,44.7,41.4,30.36,SSE,148,1.0,10.0,88,0.00,,,0.03,Wunderground v.1.15,2013-01-09 21:58:00,
2013-01-09 17:03:00,44.4,40.8,30.37,SSE,158,1.0,3.0,87,0.00,,,0.03,Wunderground v.1.15,2013-01-09 22:03:00,
2013-01-09 17:09:00,43.9,40.3,30.37,SSE,157,1.0,3.0,87,0.00,,,0.03,Wunderground v.1.15,2013-01-09 22:09:00,
2013-01-09 17:14:00,43.6,40.3,30.37,SSE,157,0.0,2.0,88,0.00,,,0.03,Wunderground v.1.15,2013-01-09 22:14:00,
2013-01-09 17:20:00,43.1,39.8,30.38,SSE,163,0.0,0.0,88,0.00,,,0.03,Wunderground v.1.15,2013-01-09 22:20:00,
2013-01-09 17:25:00,42.5,38.9,30.38,SSE,163,0.0,0.0,87,0.00,,,0.03,Wunderground v.1.15,2013-01-09 22:25:00,
2013-01-09 17:30:00,41.7,38.1,30.38,SSE,163,0.0,0.0,87,0.00,,,0.03,Wunderground v.1.15,2013-01-09 22:30:00,
2013-01-09 17:36:00,40.7,37.4,30.39,SSE,159,1.0,10.0,88,0.00,,,0.03,Wunderground v.1.15,2013-01-09 22:36:00,
2013-01-09 17:41:00,40.3,37.6,30.39,SSW,195,1.0,10.0,90,0.00,,,0.03,Wunderground v.1.15,2013-01-09 22:41:00,
2013-01-09 17:46:00,39.9,37.5,30.39,SSW,195,1.0,10.0,91,0.00,,,0.03,Wunderground v.1.15,2013-01-09 22:46:00,
2013-01-09 17:51:00,39.4,36.7,30.39,SSW,195,0.0,10.0,90,0.00,,,0.03,Wunderground v.1.15,2013-01-09 22:51:00,
2013-01-09 17:56:00,38.9,36.5,30.40,SSW,195,0.0,10.0,91,0.00,,,0.03,Wunderground v.1.15,2013-01-09 22:56:00,
2013-01-09 18:01:00,38.5,36.1,30.40,SSW,194,0.0,0.0,91,0.00,,,0.03,Wunderground v.1.15,2013-01-09 23:01:00,
2013-01-09 18:06:00,37.9,35.5,30.40,SSE,152,1.0,3.0,91,0.00,,,0.03,Wunderground v.1.15,2013-01-09 23:06:00,
2013-01-09 18:12:00,37.4,35.3,30.40,SSE,157,1.0,1.0,92,0.00,,,0.03,Wunderground v.1.15,2013-01-09 23:12:00,
2013-01-09 18:17:00,37.1,35.0,30.40,SSE,156,0.0,1.0,92,0.00,,,0.03,Wunderground v.1.15,2013-01-09 23:17:00,
2013-01-09 18:22:00,37.0,35.2,30.40,SSE,156,0.0,0.0,93,0.00,,,0.03,Wunderground v.1.15,2013-01-09 23:22:00,
2013-01-09 18:27:00,36.7,34.9,30.41,SSE,156,0.0,0.0,93,0.00,,,0.03,Wunderground v.1.15,2013-01-09 23:27:00,
2013-01-09 18:33:00,36.5,34.7,30.41,ESE,105,0.0,2.0,93,0.00,,,0.03,Wunderground v.1.15,2013-01-09 23:33:00,
2013-01-09 18:38:00,36.3,34.7,30.42,ESE,105,0.0,2.0,94,0.00,,,0.03,Wunderground v.1.15,2013-01-09 23:38:00,
2013-01-09 18:44:00,36.2,34.6,30.42,ESE,105,0.0,2.0,94,0.00,,,0.03,Wunderground v.1.15,2013-01-09 23:44:00,
2013-01-09 18:49:00,36.0,34.4,30.43,ESE,105,0.0,2.0,94,0.00,,,0.03,Wunderground v.1.15,2013-01-09 23:49:00,
2013-01-09 18:54:00,35.7,34.1,30.43,ESE,105,0.0,2.0,94,0.00,,,0.03,Wunderground v.1.15,2013-01-09 23:54:00,
2013-01-09 19:01:00,35.5,33.9,30.43,ESE,105,0.0,0.0,94,0.00,,,0.03,Wunderground v.1.15,2013-01-10 00:01:00,
2013-01-09 19:06:00,35.2,33.6,30.44,ESE,105,0.0,0.0,94,0.00,,,0.03,Wunderground v.1.15,2013-01-10 00:06:00,
2013-01-09 19:12:00,35.1,33.8,30.43,ESE,105,0.0,0.0,95,0.00,,,0.03,Wunderground v.1.15,2013-01-10 00:12:00,
2013-01-09 19:17:00,34.9,33.6,30.44,ESE,105,0.0,0.0,95,0.00,,,0.03,Wunderground v.1.15,2013-01-10 00:17:00,
2013-01-09 19:22:00,34.6,33.3,30.45,ESE,105,0.0,0.0,95,0.00,,,0.03,Wunderground v.1.15,2013-01-10 00:22:00,
2013-01-09 19:27:00,34.5,33.2,30.45,ESE,105,0.0,0.0,95,0.00,,,0.03,Wunderground v.1.15,2013-01-10 00:27:00,
2013-01-09 19:32:00,34.4,33.1,30.45,ESE,105,0.0,4.0,95,0.00,,,0.03,Wunderground v.1.15,2013-01-10 00:32:00,
2013-01-09 19:38:00,34.4,33.4,30.45,ESE,105,0.0,4.0,96,0.00,,,0.03,Wunderground v.1.15,2013-01-10 00:38:00,
2013-01-09 19:44:00,34.5,33.5,30.46,ESE,105,0.0,4.0,96,0.00,,,0.03,Wunderground v.1.15,2013-01-10 00:44:00,
2013-01-09 19:50:00,34.4,33.4,30.47,ESE,105,0.0,4.0,96,0.00,,,0.03,Wunderground v.1.15,2013-01-10 00:50:00,
2013-01-09 19:55:00,34.4,33.4,30.47,ESE,105,0.0,4.0,96,0.00,,,0.03,Wunderground v.1.15,2013-01-10 00:55:00,
2013-01-09 20:00:00,34.2,33.2,30.47,ESE,105,0.0,2.0,96,0.00,,,0.03,Wunderground v.1.15,2013-01-10 01:00:00,
2013-01-09 20:06:00,34.4,33.4,30.47,WNW,294,0.0,2.0,96,0.00,,,0.03,Wunderground v.1.15,2013-01-10 01:06:00,
2013-01-09 20:11:00,34.4,33.4,30.48,WNW,294,0.0,0.0,96,0.00,,,0.03,Wunderground v.1.15,2013-01-10 01:11:00,
2013-01-09 20:16:00,34.4,33.4,30.48,WNW,294,0.0,0.0,96,0.00,,,0.03,Wunderground v.1.15,2013-01-10 01:16:00,
2013-01-09 20:21:00,34.4,33.4,30.48,WNW,294,0.0,0.0,96,0.00,,,0.03,Wunderground v.1.15,2013-01-10 01:21:00,
2013-01-09 20:27:00,34.3,33.5,30.48,WNW,294,0.0,0.0,97,0.00,,,0.03,Wunderground v.1.15,2013-01-10 01:27:00,
2013-01-09 20:32:00,34.1,33.3,30.49,WNW,294,0.0,1.0,97,0.00,,,0.03,Wunderground v.1.15,2013-01-10 01:32:00,
2013-01-09 20:38:00,33.9,33.1,30.49,WNW,294,0.0,2.0,97,0.00,,,0.03,Wunderground v.1.15,2013-01-10 01:38:00,
2013-01-09 20:44:00,33.8,33.0,30.49,WNW,294,0.0,1.0,97,0.00,,,0.03,Wunderground v.1.15,2013-01-10 01:44:00,
2013-01-09 20:49:00,33.7,32.9,30.49,WNW,294,0.0,1.0,97,0.00,,,0.03,Wunderground v.1.15,2013-01-10 01:49:00,
2013-01-09 20:54:00,33.6,32.8,30.49,WNW,294,0.0,1.0,97,0.00,,,0.03,Wunderground v.1.15,2013-01-10 01:54:00,
2013-01-09 20:59:00,33.4,32.6,30.49,WNW,294,0.0,1.0,97,0.00,,,0.03,Wunderground v.1.15,2013-01-10 01:59:00,
2013-01-09 21:05:00,33.3,32.5,30.50,WNW,294,0.0,0.0,97,0.00,,,0.03,Wunderground v.1.15,2013-01-10 02:05:00,
2013-01-09 21:10:00,33.1,32.3,30.50,WNW,294,0.0,0.0,97,0.00,,,0.03,Wunderground v.1.15,2013-01-10 02:10:00,
2013-01-09 21:15:00,33.0,32.2,30.50,WNW,294,0.0,0.0,97,0.00,,,0.03,Wunderground v.1.15,2013-01-10 02:15:00,
2013-01-09 21:20:00,32.8,32.0,30.50,WNW,294,0.0,0.0,97,0.00,,,0.03,Wunderground v.1.15,2013-01-10 02:20:00,
2013-01-09 21:25:00,32.6,31.8,30.50,WNW,294,0.0,0.0,97,0.00,,,0.03,Wunderground v.1.15,2013-01-10 02:25:00,
2013-01-09 21:30:00,32.4,31.6,30.50,WNW,294,0.0,0.0,97,0.00,,,0.03,Wunderground v.1.15,2013-01-10 02:30:00,
2013-01-09 21:35:00,32.2,31.4,30.50,WNW,294,0.0,4.0,97,0.00,,,0.03,Wunderground v.1.15,2013-01-10 02:35:00,
2013-01-09 21:40:00,32.1,31.3,30.50,WNW,294,0.0,4.0,97,0.00,,,0.03,Wunderground v.1.15,2013-01-10 02:40:00,
2013-01-09 21:46:00,31.9,31.1,30.50,WNW,294,0.0,4.0,97,0.00,,,0.03,Wunderground v.1.15,2013-01-10 02:46:00,
2013-01-09 21:51:00,31.9,31.1,30.51,WNW,294,0.0,4.0,97,0.00,,,0.03,Wunderground v.1.15,2013-01-10 02:51:00,
2013-01-09 21:56:00,31.6,30.8,30.51,WNW,294,0.0,4.0,97,0.00,,,0.03,Wunderground v.1.15,2013-01-10 02:56:00,
2013-01-09 22:02:00,31.4,30.6,30.51,WNW,294,0.0,0.0,97,0.00,,,0.03,Wunderground v.1.15,2013-01-10 03:02:00,
2013-01-09 22:07:00,31.3,30.5,30.51,WNW,294,0.0,0.0,97,0.00,,,0.03,Wunderground v.1.15,2013-01-10 03:07:00,
2013-01-09 22:12:00,31.3,30.5,30.51,WNW,294,0.0,0.0,97,0.00,,,0.03,Wunderground v.1.15,2013-01-10 03:12:00,
2013-01-09 22:18:00,31.2,30.4,30.52,WNW,294,0.0,0.0,97,0.00,,,0.03,Wunderground v.1.15,2013-01-10 03:18:00,
2013-01-09 22:23:00,31.0,30.2,30.51,WNW,294,0.0,0.0,97,0.00,,,0.03,Wunderground v.1.15,2013-01-10 03:23:00,
2013-01-09 22:28:00,31.0,30.2,30.52,WNW,294,0.0,0.0,97,0.00,,,0.03,Wunderground v.1.15,2013-01-10 03:28:00,
2013-01-09 22:33:00,30.9,30.1,30.52,WNW,294,0.0,0.0,97,0.00,,,0.03,Wunderground v.1.15,2013-01-10 03:33:00,
2013-01-09 22:38:00,30.8,30.0,30.52,WNW,294,0.0,0.0,97,0.00,,,0.03,Wunderground v.1.15,2013-01-10 03:38:00,
2013-01-09 22:44:00,30.7,30.0,30.53,WNW,294,0.0,0.0,97,0.00,,,0.03,Wunderground v.1.15,2013-01-10 03:44:00,
2013-01-09 22:50:00,30.7,30.0,30.53,WNW,294,0.0,0.0,97,0.00,,,0.03,Wunderground v.1.15,2013-01-10 03:50:00,
2013-01-09 22:55:00,30.7,30.0,30.53,WNW,294,0.0,0.0,97,0.00,,,0.03,Wunderground v.1.15,2013-01-10 03:55:00,
2013-01-09 23:01:00,30.6,29.9,30.53,WNW,294,0.0,0.0,97,0.00,,,0.03,Wunderground v.1.15,2013-01-10 04:01:00,
2013-01-09 23:06:00,30.5,29.8,30.53,WNW,294,0.0,0.0,97,0.00,,,0.03,Wunderground v.1.15,2013-01-10 04:06:00,
2013-01-09 23:11:00,30.3,29.6,30.53,WNW,294,0.0,0.0,97,0.00,,,0.03,Wunderground v.1.15,2013-01-10 04:11:00,
2013-01-09 23:17:00,30.1,29.4,30.54,WNW,294,0.0,0.0,97,0.00,,,0.03,Wunderground v.1.15,2013-01-10 04:17:00,
2013-01-09 23:22:00,30.0,29.3,30.54,WNW,294,0.0,0.0,97,0.00,,,0.03,Wunderground v.1.15,2013-01-10 04:22:00,
2013-01-09 23:27:00,29.9,29.2,30.53,WNW,294,0.0,0.0,97,0.00,,,0.03,Wunderground v.1.15,2013-01-10 04:27:00,
2013-01-09 23:32:00,29.8,29.1,30.54,WNW,294,0.0,1.0,97,0.00,,,0.03,Wunderground v.1.15,2013-01-10 04:32:00,
2013-01-09 23:37:00,29.8,29.1,30.54,WNW,294,0.0,1.0,97,0.00,,,0.03,Wunderground v.1.15,2013-01-10 04:37:00,
2013-01-09 23:42:00,29.9,29.2,30.54,WNW,294,0.0,1.0,97,0.00,,,0.03,Wunderground v.1.15,2013-01-10 04:42:00,
2013-01-09 23:47:00,29.8,29.1,30.55,WNW,294,0.0,1.0,97,0.00,,,0.03,Wunderground v.1.15,2013-01-10 04:47:00,
2013-01-09 23:52:00,29.6,28.9,30.54,WNW,294,0.0,1.0,97,0.00,,,0.03,Wunderground v.1.15,2013-01-10 04:52:00,
2013-01-09 23:58:00,29.4,28.7,30.55,WNW,294,0.0,1.0,97,0.00,,,0.03,Wunderground v.1.15,2013-01-10 04:58:00,